createdAt,value
2023-06-09T00:02:20.516Z,63.32
2023-06-09T00:04:47.130Z,63.39
2023-06-09T00:07:16.971Z,63.42
2023-06-09T00:09:44.525Z,63.37
2023-06-09T00:12:11.685Z,63.73
2023-06-09T00:14:38.116Z,63.63
2023-06-09T00:17:09.132Z,63.54
2023-06-09T00:19:38.826Z,63.63
2023-06-09T00:22:06.376Z,63.53
2023-06-09T00:24:33.049Z,63.53
2023-06-09T00:26:59.510Z,63.35
2023-06-09T00:29:26.047Z,63.58
2023-06-09T00:31:52.701Z,63.61
2023-06-09T00:34:19.340Z,63.62
2023-06-09T00:36:45.885Z,63.58
2023-06-09T00:39:12.351Z,63.51
2023-06-09T00:41:39.220Z,63.57
2023-06-09T00:44:06.036Z,63.54
2023-06-09T00:46:32.670Z,63.55
2023-06-09T00:48:59.238Z,63.73
2023-06-09T00:51:25.752Z,63.59
2023-06-09T00:53:52.223Z,63.58
2023-06-09T00:56:19.602Z,63.74
2023-06-09T00:58:46.426Z,63.61
2023-06-09T01:01:12.959Z,63.69
2023-06-09T01:03:40.124Z,63.76
2023-06-09T01:06:14.543Z,63.72
2023-06-09T01:08:51.149Z,63.84
2023-06-09T01:11:17.566Z,63.64
2023-06-09T01:13:54.047Z,63.66
2023-06-09T01:16:22.773Z,63.73
2023-06-09T01:18:49.881Z,63.71
2023-06-09T01:21:25.462Z,63.71
2023-06-09T01:23:52.638Z,63.94
2023-06-09T01:26:19.802Z,63.86
2023-06-09T01:28:47.086Z,63.72
2023-06-09T01:31:16.219Z,63.76
2023-06-09T01:33:42.730Z,63.87
2023-06-09T01:36:09.197Z,63.88
2023-06-09T01:38:35.670Z,63.89
2023-06-09T01:41:02.128Z,63.99
2023-06-09T01:43:28.665Z,63.88
2023-06-09T01:45:55.125Z,63.87
2023-06-09T01:48:25.255Z,63.80
2023-06-09T01:50:54.896Z,63.78
2023-06-09T01:53:26.955Z,63.92
2023-06-09T01:55:54.690Z,63.83
2023-06-09T01:58:24.116Z,63.83
2023-06-09T02:00:50.578Z,63.74
2023-06-09T02:03:18.951Z,63.92
2023-06-09T02:05:45.505Z,64.04
2023-06-09T02:08:12.183Z,63.81
2023-06-09T02:10:38.609Z,64.10
2023-06-09T02:13:17.772Z,63.99
2023-06-09T02:15:44.946Z,63.83
2023-06-09T02:18:13.109Z,63.98
2023-06-09T02:20:40.653Z,63.96
2023-06-09T02:23:07.467Z,64.03
2023-06-09T02:25:34.031Z,64.09
2023-06-09T02:28:04.308Z,64.05
2023-06-09T02:30:30.881Z,64.22
2023-06-09T02:33:03.390Z,64.34
2023-06-09T02:35:30.362Z,64.25
2023-06-09T02:37:58.764Z,64.24
2023-06-09T02:40:31.059Z,64.18
2023-06-09T02:42:57.536Z,64.22
2023-06-09T02:45:23.987Z,64.37
2023-06-09T02:47:50.550Z,64.21
2023-06-09T02:50:17.141Z,64.11
2023-06-09T02:52:43.737Z,64.23
2023-06-09T02:55:12.426Z,64.31
2023-06-09T02:57:38.917Z,64.31
2023-06-09T03:00:08.150Z,64.13
2023-06-09T03:02:35.648Z,64.20
2023-06-09T03:05:02.489Z,64.15
2023-06-09T03:07:28.906Z,64.14
2023-06-09T03:09:55.376Z,64.17
2023-06-09T03:12:21.805Z,64.04
2023-06-09T03:14:48.209Z,63.99
2023-06-09T03:17:14.772Z,63.95
2023-06-09T03:19:41.351Z,63.85
2023-06-09T03:22:07.837Z,64.04
2023-06-09T03:24:34.625Z,63.75
2023-06-09T03:27:01.087Z,63.96
2023-06-09T03:29:29.944Z,63.96
2023-06-09T03:31:56.501Z,64.12
2023-06-09T03:34:23.988Z,64.27
2023-06-09T03:36:50.573Z,64.18
2023-06-09T03:39:17.949Z,64.32
2023-06-09T03:41:44.444Z,64.12
2023-06-09T03:44:10.863Z,64.22
2023-06-09T03:46:37.422Z,64.24
2023-06-09T03:49:03.934Z,64.21
2023-06-09T03:51:30.433Z,64.28
2023-06-09T03:53:56.867Z,64.54
2023-06-09T03:56:23.304Z,64.48
2023-06-09T03:58:54.295Z,64.32
2023-06-09T04:01:22.569Z,64.05
2023-06-09T04:03:49.084Z,64.04
2023-06-09T04:06:15.576Z,63.82
2023-06-09T04:08:45.457Z,63.67
2023-06-09T04:11:12.181Z,63.97
2023-06-09T04:13:38.643Z,63.64
2023-06-09T04:16:05.236Z,63.66
2023-06-09T04:18:32.283Z,63.35
2023-06-09T04:20:58.740Z,63.29
2023-06-09T04:23:28.633Z,63.28
2023-06-09T04:25:56.489Z,63.26
2023-06-09T04:28:22.914Z,63.11
2023-06-09T04:30:51.365Z,63.19
2023-06-09T04:33:19.462Z,63.13
2023-06-09T04:35:47.928Z,62.98
2023-06-09T04:38:14.596Z,62.95
2023-06-09T04:40:41.190Z,62.76
2023-06-09T04:43:09.239Z,62.95
2023-06-09T04:45:36.328Z,62.88
2023-06-09T04:48:03.276Z,62.98
2023-06-09T04:50:31.877Z,63.28
2023-06-09T04:52:58.613Z,63.80
2023-06-09T04:55:26.730Z,63.86
2023-06-09T04:57:57.565Z,63.98
2023-06-09T05:00:25.957Z,63.64
2023-06-09T05:02:52.591Z,63.46
2023-06-09T05:05:19.315Z,63.17
2023-06-09T05:07:45.994Z,63.06
2023-06-09T05:10:12.544Z,62.89
2023-06-09T05:12:39.588Z,62.81
2023-06-09T05:15:06.759Z,62.66
2023-06-09T05:17:43.261Z,62.69
2023-06-09T05:20:10.765Z,62.51
2023-06-09T05:22:37.482Z,62.47
2023-06-09T05:25:04.386Z,62.45
2023-06-09T05:27:31.226Z,62.82
2023-06-09T05:29:58.196Z,62.56
2023-06-09T05:32:24.701Z,62.93
2023-06-09T05:34:51.170Z,62.70
2023-06-09T05:37:17.945Z,62.78
2023-06-09T05:39:44.458Z,62.65
2023-06-09T05:42:11.020Z,62.58
2023-06-09T05:44:37.611Z,62.67
2023-06-09T05:47:04.182Z,62.50
2023-06-09T05:49:31.147Z,62.45
2023-06-09T05:51:57.570Z,62.30
2023-06-09T05:54:24.079Z,62.36
2023-06-09T05:56:50.690Z,62.23
2023-06-09T05:59:21.908Z,62.31
2023-06-09T06:01:48.768Z,61.99
2023-06-09T06:04:15.345Z,61.89
2023-06-09T06:06:42.147Z,61.75
2023-06-09T06:09:10.219Z,61.63
2023-06-09T06:11:36.912Z,61.30
2023-06-09T06:14:03.504Z,61.49
2023-06-09T06:16:30.071Z,61.22
2023-06-09T06:18:56.589Z,61.26
2023-06-09T06:21:23.084Z,61.17
2023-06-09T06:23:49.714Z,61.05
2023-06-09T06:26:16.610Z,61.38
2023-06-09T06:28:43.079Z,61.09
2023-06-09T06:31:10.281Z,61.16
2023-06-09T06:33:36.996Z,61.17
2023-06-09T06:36:03.564Z,60.96
2023-06-09T06:38:29.999Z,61.13
2023-06-09T06:40:56.461Z,60.93
2023-06-09T06:43:22.914Z,61.04
2023-06-09T06:45:49.370Z,61.42
2023-06-09T06:48:15.815Z,61.49
2023-06-09T06:50:42.289Z,61.88
2023-06-09T06:53:11.690Z,62.14
2023-06-09T06:55:38.549Z,62.01
2023-06-09T06:58:05.122Z,62.62
2023-06-09T07:00:31.612Z,62.47
2023-06-09T07:02:58.361Z,62.70
2023-06-09T07:05:24.988Z,62.89
2023-06-09T07:07:51.478Z,63.05
2023-06-09T07:10:18.030Z,62.56
2023-06-09T07:12:44.577Z,62.41
2023-06-09T07:15:11.319Z,62.39
2023-06-09T07:17:37.931Z,62.67
2023-06-09T07:20:05.311Z,62.65
2023-06-09T07:22:34.957Z,62.67
2023-06-09T07:25:02.094Z,62.86
2023-06-09T07:27:29.123Z,62.86
2023-06-09T07:29:55.584Z,62.83
2023-06-09T07:32:22.036Z,62.72
2023-06-09T07:34:48.684Z,62.74
2023-06-09T07:37:15.506Z,62.45
2023-06-09T07:39:42.205Z,62.21
2023-06-09T07:42:08.757Z,62.54
2023-06-09T07:44:35.304Z,62.57
2023-06-09T07:47:02.838Z,62.25
2023-06-09T07:49:29.348Z,61.85
2023-06-09T07:51:57.014Z,62.12
2023-06-09T07:54:24.085Z,62.14
2023-06-09T07:56:51.461Z,62.38
2023-06-09T07:59:18.398Z,61.94
2023-06-09T08:01:45.042Z,61.81
2023-06-09T08:04:11.844Z,61.88
2023-06-09T08:06:38.950Z,62.39
2023-06-09T08:09:05.681Z,62.19
2023-06-09T08:11:32.161Z,62.21
2023-06-09T08:13:59.158Z,62.04
2023-06-09T08:16:25.772Z,62.21
2023-06-09T08:18:52.286Z,62.65
2023-06-09T08:21:18.879Z,62.69
2023-06-09T08:23:45.846Z,62.60
2023-06-09T08:26:12.371Z,62.40
2023-06-09T08:28:39.544Z,62.49
2023-06-09T08:31:07.064Z,62.39
2023-06-09T08:33:34.443Z,62.37
2023-06-09T08:36:03.969Z,62.49
2023-06-09T08:38:33.912Z,62.44
2023-06-09T08:41:10.168Z,62.20
2023-06-09T08:43:36.862Z,62.74
2023-06-09T08:46:07.235Z,62.61
2023-06-09T08:48:36.506Z,63.20
2023-06-09T08:51:03.129Z,63.04
2023-06-09T08:53:30.110Z,63.57
2023-06-09T08:55:56.717Z,63.57
2023-06-09T08:58:23.615Z,63.75
2023-06-09T09:00:51.266Z,63.62
2023-06-09T09:03:21.668Z,63.47
2023-06-09T09:05:48.323Z,63.20
2023-06-09T09:08:15.260Z,63.06
2023-06-09T09:10:46.817Z,63.41
2023-06-09T09:13:13.334Z,63.28
2023-06-09T09:15:49.380Z,63.20
2023-06-09T09:18:17.302Z,62.93
2023-06-09T09:20:43.924Z,63.02
2023-06-09T09:23:10.547Z,63.49
2023-06-09T09:25:37.105Z,63.60
2023-06-09T09:28:03.585Z,63.64
2023-06-09T09:30:48.570Z,63.45
2023-06-09T09:33:16.676Z,63.34
2023-06-09T09:35:47.256Z,63.28
2023-06-09T09:38:19.797Z,63.35
2023-06-09T09:40:49.606Z,63.12
2023-06-09T09:43:16.241Z,63.24
2023-06-09T09:45:43.569Z,63.25
2023-06-09T09:48:11.045Z,63.34
2023-06-09T09:50:37.908Z,63.72
2023-06-09T09:55:31.186Z,63.29
2023-06-09T09:57:58.105Z,63.24
2023-06-09T10:00:24.558Z,63.37
2023-06-09T10:02:51.765Z,63.32
2023-06-09T10:05:18.306Z,63.26
2023-06-09T10:07:47.358Z,63.85
2023-06-09T10:10:14.109Z,63.86
2023-06-09T10:12:40.584Z,63.94
2023-06-09T10:15:10.380Z,64.06
2023-06-09T10:17:37.429Z,64.04
2023-06-09T10:20:09.462Z,63.98
2023-06-09T10:22:35.958Z,64.17
2023-06-09T10:25:04.449Z,64.18
2023-06-09T10:27:32.257Z,64.22
2023-06-09T10:29:58.739Z,64.35
2023-06-09T10:32:26.927Z,64.30
2023-06-09T10:34:53.858Z,63.92
2023-06-09T10:37:29.461Z,64.37
2023-06-09T10:40:16.186Z,64.09
2023-06-09T10:42:51.501Z,64.07
2023-06-09T10:45:19.872Z,64.03
2023-06-09T10:47:47.106Z,63.82
2023-06-09T10:50:27.012Z,64.07
2023-06-09T10:52:57.025Z,63.66
2023-06-09T10:55:25.507Z,63.93
2023-06-09T10:57:54.371Z,63.86
2023-06-09T11:00:21.051Z,63.78
2023-06-09T11:02:49.073Z,63.75
2023-06-09T11:05:17.579Z,63.93
2023-06-09T11:07:46.572Z,63.92
2023-06-09T11:10:13.487Z,64.14
2023-06-09T11:12:43.755Z,64.48
2023-06-09T11:15:13.047Z,64.30
2023-06-09T11:17:42.637Z,64.42
2023-06-09T11:20:22.868Z,63.88
2023-06-09T11:23:00.022Z,63.95
2023-06-09T11:25:27.852Z,63.45
2023-06-09T11:27:57.826Z,63.48
2023-06-09T11:30:26.430Z,63.51
2023-06-09T11:32:54.540Z,64.12
2023-06-09T11:35:31.271Z,64.21
2023-06-09T11:38:04.332Z,64.04
2023-06-09T11:40:31.786Z,64.10
2023-06-09T11:42:59.876Z,64.12
2023-06-09T11:45:27.702Z,63.87
2023-06-09T11:47:59.090Z,63.81
2023-06-09T11:50:28.188Z,64.02
2023-06-09T11:53:04.793Z,63.92
2023-06-09T11:55:33.234Z,63.67
2023-06-09T11:58:02.725Z,63.62
2023-06-09T12:00:29.733Z,63.19
2023-06-09T12:02:57.353Z,63.50
2023-06-09T12:05:25.256Z,63.62
2023-06-09T12:07:54.830Z,63.36
2023-06-09T12:10:23.501Z,63.23
2023-06-09T12:12:50.635Z,63.42
2023-06-09T12:15:19.753Z,63.41
2023-06-09T12:18:01.431Z,63.60
2023-06-09T12:20:37.614Z,62.93
2023-06-09T12:23:05.629Z,62.79
2023-06-09T12:25:37.018Z,62.52
2023-06-09T12:28:29.690Z,62.68
2023-06-09T12:31:11.632Z,62.95
2023-06-09T12:33:39.903Z,62.74
2023-06-09T12:36:10.227Z,63.07
2023-06-09T12:38:40.939Z,62.90
2023-06-09T12:41:14.127Z,62.84
2023-06-09T12:43:51.323Z,62.98
2023-06-09T12:46:28.586Z,62.96
2023-06-09T12:49:00.479Z,62.97
2023-06-09T12:51:27.488Z,62.64
2023-06-09T12:53:57.239Z,62.56
2023-06-09T12:56:23.709Z,62.96
2023-06-09T12:58:52.226Z,63.10
2023-06-09T13:01:18.791Z,63.28
2023-06-09T13:03:46.099Z,62.68
2023-06-09T13:06:12.799Z,62.97
2023-06-09T13:08:39.844Z,62.17
2023-06-09T13:11:06.640Z,62.64
2023-06-09T13:13:34.413Z,62.73
2023-06-09T13:16:02.837Z,62.67
2023-06-09T13:18:29.745Z,62.95
2023-06-09T13:20:56.738Z,63.23
2023-06-09T13:23:23.653Z,63.03
2023-06-09T13:25:50.896Z,63.28
2023-06-09T13:28:20.057Z,62.86
2023-06-09T13:30:48.574Z,63.24
2023-06-09T13:33:18.457Z,63.29
2023-06-09T13:35:46.656Z,63.23
2023-06-09T13:38:14.595Z,62.82
2023-06-09T13:40:46.060Z,63.38
2023-06-09T13:43:14.081Z,62.93
2023-06-09T13:45:41.114Z,62.97
2023-06-09T13:48:08.007Z,63.08
2023-06-09T13:50:36.890Z,63.25
2023-06-09T13:53:04.696Z,63.27
2023-06-09T13:55:31.599Z,63.51
2023-06-09T13:57:59.108Z,63.41
2023-06-09T14:00:26.164Z,63.02
2023-06-09T14:02:53.084Z,63.03
2023-06-09T14:05:21.296Z,63.47
2023-06-09T14:07:49.950Z,62.94
2023-06-09T14:10:17.037Z,62.98
2023-06-09T14:12:49.633Z,63.16
2023-06-09T14:17:50.978Z,63.19
2023-06-09T14:20:20.563Z,62.99
2023-06-09T14:22:48.379Z,62.76
2023-06-09T14:25:23.727Z,62.98
2023-06-09T14:27:51.030Z,62.72
2023-06-09T14:30:19.343Z,63.07
2023-06-09T14:32:49.884Z,63.14
2023-06-09T14:35:23.429Z,63.08
2023-06-09T14:37:51.643Z,62.98
2023-06-09T14:40:18.675Z,62.78
2023-06-09T14:42:46.819Z,62.72
2023-06-09T14:45:21.376Z,62.59
2023-06-09T14:47:49.806Z,62.47
2023-06-09T14:50:22.341Z,62.37
2023-06-09T14:53:01.137Z,62.55
2023-06-09T14:55:29.371Z,62.46
2023-06-09T14:57:57.215Z,62.48
2023-06-09T15:00:25.073Z,61.94
2023-06-09T15:02:52.461Z,62.10
2023-06-09T15:05:23.061Z,61.93
2023-06-09T15:07:52.307Z,62.40
2023-06-09T15:10:21.554Z,62.25
2023-06-09T15:12:47.966Z,62.53
2023-06-09T15:15:19.572Z,62.47
2023-06-09T15:17:46.730Z,63.02
2023-06-09T15:20:19.957Z,62.93
2023-06-09T15:22:47.653Z,63.17
2023-06-09T15:25:16.142Z,63.60
2023-06-09T15:27:45.594Z,63.40
2023-06-09T15:30:14.412Z,63.54
2023-06-09T15:32:43.218Z,63.61
2023-06-09T15:35:15.129Z,63.48
2023-06-09T15:37:41.588Z,63.45
2023-06-09T15:40:11.000Z,63.42
2023-06-09T15:42:38.106Z,63.75
2023-06-09T15:45:04.715Z,63.56
2023-06-09T15:47:31.295Z,63.90
2023-06-09T15:49:57.937Z,63.93
2023-06-09T15:52:24.956Z,63.91
2023-06-09T15:54:51.774Z,63.43
2023-06-09T15:57:19.688Z,63.32
2023-06-09T15:59:46.159Z,63.33
2023-06-09T16:02:12.558Z,63.78
2023-06-09T16:04:41.796Z,63.57
2023-06-09T16:07:09.718Z,63.60
2023-06-09T16:09:36.221Z,63.79
2023-06-09T16:12:03.965Z,63.79
2023-06-09T16:14:31.463Z,64.04
2023-06-09T16:16:57.976Z,63.99
2023-06-09T16:19:24.404Z,63.83
2023-06-09T16:21:50.903Z,64.17
2023-06-09T16:24:17.470Z,64.18
2023-06-09T16:26:44.957Z,63.79
2023-06-09T16:29:11.483Z,64.06
2023-06-09T16:31:38.010Z,64.12
2023-06-09T16:34:04.524Z,63.95
2023-06-09T16:36:30.968Z,64.46
2023-06-09T16:38:57.414Z,64.54
2023-06-09T16:41:24.091Z,64.50
2023-06-09T16:43:50.657Z,64.26
2023-06-09T16:46:17.180Z,64.36
2023-06-09T16:48:43.663Z,64.33
2023-06-09T16:51:10.085Z,64.30
2023-06-09T16:53:36.548Z,64.26
2023-06-09T16:56:03.159Z,64.55
2023-06-09T16:58:29.596Z,64.19
2023-06-09T17:00:56.059Z,64.21
2023-06-09T17:03:22.619Z,64.29
2023-06-09T17:05:49.109Z,64.31
2023-06-09T17:08:15.766Z,64.35
2023-06-09T17:10:42.281Z,64.36
2023-06-09T17:13:08.946Z,64.39
2023-06-09T17:15:35.787Z,64.45
2023-06-09T17:18:02.476Z,64.62
2023-06-09T17:20:29.848Z,64.42
2023-06-09T17:22:56.278Z,64.54
2023-06-09T17:25:22.872Z,64.25
2023-06-09T17:27:49.302Z,64.58
2023-06-09T17:30:16.363Z,64.54
2023-06-09T17:32:43.672Z,64.90
2023-06-09T17:35:11.041Z,64.98
2023-06-09T17:37:38.858Z,64.85
2023-06-09T17:40:06.356Z,64.95
2023-06-09T17:42:32.816Z,64.75
2023-06-09T17:45:00.037Z,64.96
2023-06-09T17:47:26.905Z,64.89
2023-06-09T17:49:53.860Z,64.96
2023-06-09T17:52:22.252Z,64.98
2023-06-09T17:54:49.170Z,65.09
2023-06-09T17:57:15.737Z,65.34
2023-06-09T17:59:42.228Z,65.16
2023-06-09T18:02:09.047Z,65.36
2023-06-09T18:04:35.482Z,65.35
2023-06-09T18:07:04.004Z,65.46
2023-06-09T18:09:33.879Z,65.39
2023-06-09T18:12:00.514Z,65.57
2023-06-09T18:14:27.067Z,65.03
2023-06-09T18:16:53.639Z,65.05
2023-06-09T18:19:20.091Z,64.87
2023-06-09T18:21:46.744Z,64.60
2023-06-09T18:24:13.403Z,64.71
2023-06-09T18:26:40.100Z,65.02
2023-06-09T18:29:06.802Z,64.75
2023-06-09T18:31:33.382Z,64.63
2023-06-09T18:33:59.900Z,64.88
2023-06-09T18:36:27.867Z,65.01
2023-06-09T18:38:55.335Z,65.39
2023-06-09T18:41:21.930Z,65.36
2023-06-09T18:43:48.448Z,65.55
2023-06-09T18:46:14.899Z,65.17
2023-06-09T18:48:55.818Z,65.33
2023-06-09T18:51:26.948Z,65.44
2023-06-09T18:53:54.683Z,65.14
2023-06-09T18:56:21.465Z,65.17
2023-06-09T18:58:47.891Z,65.21
2023-06-09T19:01:14.478Z,65.37
2023-06-09T19:03:41.136Z,65.30
2023-06-09T19:06:07.858Z,65.14
2023-06-09T19:08:34.472Z,65.29
2023-06-09T19:11:00.999Z,65.67
2023-06-09T19:13:27.456Z,65.56
2023-06-09T19:15:55.387Z,65.40
2023-06-09T19:18:22.050Z,65.55
2023-06-09T19:20:49.976Z,65.20
2023-06-09T19:23:17.250Z,65.19
2023-06-09T19:25:43.907Z,65.55
2023-06-09T19:28:11.538Z,65.38
2023-06-09T19:30:39.081Z,65.41
2023-06-09T19:33:07.579Z,65.49
2023-06-09T19:35:34.177Z,65.69
2023-06-09T19:38:00.682Z,65.60
2023-06-09T19:40:27.191Z,65.45
2023-06-09T19:42:53.651Z,65.41
2023-06-09T19:45:20.068Z,65.37
2023-06-09T19:47:46.593Z,65.19
2023-06-09T19:50:13.598Z,65.08
2023-06-09T19:52:40.131Z,65.19
2023-06-09T19:55:07.104Z,65.23
2023-06-09T19:57:33.929Z,65.27
2023-06-09T20:00:00.506Z,65.17
2023-06-09T20:02:27.140Z,65.28
2023-06-09T20:04:53.808Z,65.45
2023-06-09T20:07:20.466Z,65.34
2023-06-09T20:09:46.909Z,65.10
2023-06-09T20:12:13.463Z,65.10
2023-06-09T20:14:41.659Z,65.34
2023-06-09T20:17:08.895Z,65.44
2023-06-09T20:19:40.912Z,65.14
2023-06-09T20:22:09.546Z,65.14
2023-06-09T20:24:36.130Z,65.18
2023-06-09T20:27:02.642Z,65.12
2023-06-09T20:29:29.903Z,65.39
2023-06-09T20:31:56.573Z,65.28
2023-06-09T20:34:23.119Z,65.27
2023-06-09T20:36:49.536Z,65.46
2023-06-09T20:39:16.070Z,65.19
2023-06-09T20:41:42.819Z,65.56
2023-06-09T20:44:09.650Z,65.50
2023-06-09T20:46:36.591Z,65.48
2023-06-09T20:49:03.143Z,65.48
2023-06-09T20:51:29.649Z,65.36
2023-06-09T20:53:57.272Z,65.55
2023-06-09T20:56:24.061Z,65.32
2023-06-09T20:58:51.156Z,65.45
2023-06-09T21:01:18.026Z,65.65
2023-06-09T21:03:48.713Z,65.52
2023-06-09T21:06:20.805Z,65.56
2023-06-09T21:08:50.689Z,65.48
2023-06-09T21:11:17.547Z,65.52
2023-06-09T21:13:46.258Z,65.76
2023-06-09T21:16:12.723Z,65.56
2023-06-09T21:18:39.290Z,65.59
2023-06-09T21:21:05.757Z,65.65
2023-06-09T21:23:32.343Z,65.63
2023-06-09T21:25:58.857Z,65.60
2023-06-09T21:28:25.327Z,65.88
2023-06-09T21:30:51.955Z,65.68
2023-06-09T21:33:18.383Z,65.82
2023-06-09T21:35:44.824Z,65.52
2023-06-09T21:38:11.296Z,65.48
2023-06-09T21:40:37.746Z,65.45
2023-06-09T21:43:05.200Z,65.55
2023-06-09T21:45:33.406Z,65.62
2023-06-09T21:48:00.006Z,65.62
2023-06-09T21:50:26.474Z,65.59
2023-06-09T21:52:52.937Z,65.65
2023-06-09T21:55:20.704Z,65.71
2023-06-09T21:57:47.266Z,65.72
2023-06-09T22:00:14.491Z,65.81
2023-06-09T22:02:41.903Z,65.63
2023-06-09T22:05:09.264Z,65.96
2023-06-09T22:07:36.104Z,65.56
2023-06-09T22:10:02.622Z,65.97
2023-06-09T22:12:38.855Z,65.95
2023-06-09T22:15:07.079Z,65.77
2023-06-09T22:17:35.497Z,65.74
2023-06-09T22:20:03.034Z,65.91
2023-06-09T22:22:29.441Z,65.90
2023-06-09T22:24:55.894Z,65.70
2023-06-09T22:27:22.301Z,65.81
2023-06-09T22:29:48.851Z,65.63
2023-06-09T22:32:15.460Z,65.76
2023-06-09T22:34:41.962Z,65.89
2023-06-09T22:37:08.452Z,65.87
2023-06-09T22:39:34.889Z,65.73
2023-06-09T22:42:01.446Z,65.94
2023-06-09T22:44:27.978Z,65.83
2023-06-09T22:46:54.724Z,65.92
2023-06-09T22:49:22.433Z,65.83
2023-06-09T22:51:50.068Z,66.00
2023-06-09T22:54:16.633Z,65.96
2023-06-09T22:56:44.524Z,66.07
2023-06-09T22:59:11.399Z,65.86
2023-06-09T23:01:37.933Z,65.93
2023-06-09T23:04:11.575Z,66.10
2023-06-09T23:06:39.240Z,66.03
2023-06-09T23:09:05.909Z,65.91
2023-06-09T23:11:32.555Z,66.10
2023-06-09T23:13:59.899Z,65.96
2023-06-09T23:16:26.354Z,65.83
2023-06-09T23:18:53.745Z,65.82
2023-06-09T23:21:23.297Z,65.89
2023-06-09T23:23:52.736Z,65.85
2023-06-09T23:26:19.360Z,65.92
2023-06-09T23:28:45.993Z,65.85
2023-06-09T23:31:12.487Z,65.86
2023-06-09T23:33:39.941Z,65.74
2023-06-09T23:36:06.602Z,65.89
2023-06-09T23:38:33.081Z,65.99
2023-06-09T23:40:59.893Z,65.88
2023-06-09T23:43:26.492Z,65.95
2023-06-09T23:45:54.333Z,66.00
2023-06-09T23:48:21.282Z,66.00
2023-06-09T23:50:47.896Z,66.05
2023-06-09T23:53:21.620Z,66.01
2023-06-09T23:55:48.639Z,66.03
2023-06-09T23:58:15.504Z,66.03
